sensor_id;sensor_type;location;lat;lon;timestamp;temperature;humidity
20856;DHT22;10588;49.542;8.444;2022-07-23T09:27:49;25.60;58.50
20856;DHT22;10588;49.542;8.444;2022-07-23T09:30:15;25.50;61.00
20856;DHT22;10588;49.542;8.444;2022-07-23T09:33:11;25.90;60.00
20856;DHT22;10588;49.542;8.444;2022-07-23T09:36:03;26.40;60.70
20856;DHT22;10588;49.542;8.444;2022-07-23T09:38:29;26.80;59.60
20856;DHT22;10588;49.542;8.444;2022-07-23T09:41:10;27.20;59.10
20856;DHT22;10588;49.542;8.444;2022-07-23T09:43:37;27.50;58.40
20856;DHT22;10588;49.542;8.444;2022-07-23T09:46:26;27.70;58.10
20856;DHT22;10588;49.542;8.444;2022-07-23T09:48:53;27.90;57.50
20856;DHT22;10588;49.542;8.444;2022-07-23T09:51:20;28.10;57.30
20856;DHT22;10588;49.542;8.444;2022-07-23T09:53:48;28.30;57.10
20856;DHT22;10588;49.542;8.444;2022-07-23T09:56:14;28.40;56.80
20856;DHT22;10588;49.542;8.444;2022-07-23T09:58:41;28.50;56.70
20856;DHT22;10588;49.542;8.444;2022-07-23T10:01:13;28.60;56.50
20856;DHT22;10588;49.542;8.444;2022-07-23T10:03:40;28.70;56.30
20856;DHT22;10588;49.542;8.444;2022-07-23T10:06:10;28.80;56.10
20856;DHT22;10588;49.542;8.444;2022-07-23T10:08:40;28.90;55.90
20856;DHT22;10588;49.542;8.444;2022-07-23T10:11:09;29.00;55.80
20856;DHT22;10588;49.542;8.444;2022-07-23T10:13:35;29.00;55.70
20856;DHT22;10588;49.542;8.444;2022-07-23T10:16:15;29.10;55.50
20856;DHT22;10588;49.542;8.444;2022-07-23T10:18:42;29.20;55.40
20856;DHT22;10588;49.542;8.444;2022-07-23T10:21:08;29.20;55.30
20856;DHT22;10588;49.542;8.444;2022-07-23T10:23:42;29.30;55.10
20856;DHT22;10588;49.542;8.444;2022-07-23T10:26:19;29.40;54.90
20856;DHT22;10588;49.542;8.444;2022-07-23T10:29:06;29.40;54.70
20856;DHT22;10588;49.542;8.444;2022-07-23T10:34:38;29.50;54.40
20856;DHT22;10588;49.542;8.444;2022-07-23T10:37:17;29.60;54.30
20856;DHT22;10588;49.542;8.444;2022-07-23T10:40:17;29.70;54.20
20856;DHT22;10588;49.542;8.444;2022-07-23T10:42:45;29.70;54.00
20856;DHT22;10588;49.542;8.444;2022-07-23T10:45:33;29.70;54.20
20856;DHT22;10588;49.542;8.444;2022-07-23T10:48:21;29.80;53.90
20856;DHT22;10588;49.542;8.444;2022-07-23T10:51:07;29.80;53.70
20856;DHT22;10588;49.542;8.444;2022-07-23T10:59:20;30.00;53.50
20856;DHT22;10588;49.542;8.444;2022-07-23T11:01:46;30.00;53.80
20856;DHT22;10588;49.542;8.444;2022-07-23T11:04:11;30.00;53.70
20856;DHT22;10588;49.542;8.444;2022-07-23T11:09:41;30.10;53.30
20856;DHT22;10588;49.542;8.444;2022-07-23T11:15:10;30.30;53.30
20856;DHT22;10588;49.542;8.444;2022-07-23T11:23:00;30.40;53.20
20856;DHT22;10588;49.542;8.444;2022-07-23T11:25:31;30.40;52.70
20856;DHT22;10588;49.542;8.444;2022-07-23T11:28:13;30.50;52.90
20856;DHT22;10588;49.542;8.444;2022-07-23T11:30:45;30.50;52.50
20856;DHT22;10588;49.542;8.444;2022-07-23T11:35:38;30.70;52.90
20856;DHT22;10588;49.542;8.444;2022-07-23T11:38:19;30.70;52.80
20856;DHT22;10588;49.542;8.444;2022-07-23T11:40:49;30.80;52.40
20856;DHT22;10588;49.542;8.444;2022-07-23T11:43:16;30.80;52.50
20856;DHT22;10588;49.542;8.444;2022-07-23T11:45:45;30.90;53.10
20856;DHT22;10588;49.542;8.444;2022-07-23T11:48:28;30.90;52.30
20856;DHT22;10588;49.542;8.444;2022-07-23T11:50:55;31.00;52.00
20856;DHT22;10588;49.542;8.444;2022-07-23T11:53:34;31.00;52.20
20856;DHT22;10588;49.542;8.444;2022-07-23T11:56:08;31.10;51.70
20856;DHT22;10588;49.542;8.444;2022-07-23T11:58:34;31.10;51.60
20856;DHT22;10588;49.542;8.444;2022-07-23T12:01:00;31.20;51.90
20856;DHT22;10588;49.542;8.444;2022-07-23T12:03:25;31.20;51.70
20856;DHT22;10588;49.542;8.444;2022-07-23T12:05:56;31.30;51.70
20856;DHT22;10588;49.542;8.444;2022-07-23T12:08:22;31.40;51.40
20856;DHT22;10588;49.542;8.444;2022-07-23T12:10:47;31.40;51.50
20856;DHT22;10588;49.542;8.444;2022-07-23T12:13:18;31.50;51.40
20856;DHT22;10588;49.542;8.444;2022-07-23T12:15:46;31.60;51.10
20856;DHT22;10588;49.542;8.444;2022-07-23T12:18:16;31.60;51.20
20856;DHT22;10588;49.542;8.444;2022-07-23T12:20:47;31.70;51.10
20856;DHT22;10588;49.542;8.444;2022-07-23T12:23:16;31.70;50.80
20856;DHT22;10588;49.542;8.444;2022-07-23T12:25:44;31.70;50.80
20856;DHT22;10588;49.542;8.444;2022-07-23T12:28:18;31.70;50.70
20856;DHT22;10588;49.542;8.444;2022-07-23T12:30:46;31.80;50.30
20856;DHT22;10588;49.542;8.444;2022-07-23T12:33:21;31.80;50.50
20856;DHT22;10588;49.542;8.444;2022-07-23T12:35:47;31.90;50.50
20856;DHT22;10588;49.542;8.444;2022-07-23T12:38:18;31.90;50.40
20856;DHT22;10588;49.542;8.444;2022-07-23T12:40:47;32.00;50.10
20856;DHT22;10588;49.542;8.444;2022-07-23T12:46:10;32.00;49.90
20856;DHT22;10588;49.542;8.444;2022-07-23T12:48:50;32.10;49.80
20856;DHT22;10588;49.542;8.444;2022-07-23T12:51:30;32.20;49.80
20856;DHT22;10588;49.542;8.444;2022-07-23T12:54:07;32.20;49.90
20856;DHT22;10588;49.542;8.444;2022-07-23T12:56:38;32.30;50.20
20856;DHT22;10588;49.542;8.444;2022-07-23T13:01:36;32.30;50.00
20856;DHT22;10588;49.542;8.444;2022-07-23T13:04:10;32.40;49.70
20856;DHT22;10588;49.542;8.444;2022-07-23T13:06:41;32.40;49.60
20856;DHT22;10588;49.542;8.444;2022-07-23T13:09:10;32.50;49.80
20856;DHT22;10588;49.542;8.444;2022-07-23T13:11:36;32.50;49.60
20856;DHT22;10588;49.542;8.444;2022-07-23T13:14:02;32.50;49.60
20856;DHT22;10588;49.542;8.444;2022-07-23T13:16:29;32.60;49.60
20856;DHT22;10588;49.542;8.444;2022-07-23T13:18:56;32.60;49.50
20856;DHT22;10588;49.542;8.444;2022-07-23T13:21:22;32.60;49.40
20856;DHT22;10588;49.542;8.444;2022-07-23T13:23:48;32.70;49.40
20856;DHT22;10588;49.542;8.444;2022-07-23T13:26:14;32.70;49.40
20856;DHT22;10588;49.542;8.444;2022-07-23T13:28:39;32.70;49.30
20856;DHT22;10588;49.542;8.444;2022-07-23T13:31:05;32.70;49.30
20856;DHT22;10588;49.542;8.444;2022-07-23T13:33:31;32.80;49.20
20856;DHT22;10588;49.542;8.444;2022-07-23T13:35:56;32.80;49.10
20856;DHT22;10588;49.542;8.444;2022-07-23T13:38:22;32.80;49.10
20856;DHT22;10588;49.542;8.444;2022-07-23T13:40:49;32.90;49.10
20856;DHT22;10588;49.542;8.444;2022-07-23T13:43:18;32.90;48.80
20856;DHT22;10588;49.542;8.444;2022-07-23T13:45:44;32.90;48.80
20856;DHT22;10588;49.542;8.444;2022-07-23T13:48:11;32.90;48.80
20856;DHT22;10588;49.542;8.444;2022-07-23T13:50:38;33.00;48.80
20856;DHT22;10588;49.542;8.444;2022-07-23T13:53:05;33.00;48.80
20856;DHT22;10588;49.542;8.444;2022-07-23T13:55:33;33.00;48.70
20856;DHT22;10588;49.542;8.444;2022-07-23T13:57:59;33.10;48.70
20856;DHT22;10588;49.542;8.444;2022-07-23T14:00:26;33.10;48.50
20856;DHT22;10588;49.542;8.444;2022-07-23T14:02:52;33.10;48.50
20856;DHT22;10588;49.542;8.444;2022-07-23T14:05:18;33.10;48.50
20856;DHT22;10588;49.542;8.444;2022-07-23T14:07:44;33.10;48.40
20856;DHT22;10588;49.542;8.444;2022-07-23T14:10:12;33.20;48.30
20856;DHT22;10588;49.542;8.444;2022-07-23T14:12:38;33.20;48.20
20856;DHT22;10588;49.542;8.444;2022-07-23T14:15:05;33.20;48.20
20856;DHT22;10588;49.542;8.444;2022-07-23T14:17:32;33.30;48.00
20856;DHT22;10588;49.542;8.444;2022-07-23T14:19:58;33.30;48.00
20856;DHT22;10588;49.542;8.444;2022-07-23T14:22:24;33.30;48.00
20856;DHT22;10588;49.542;8.444;2022-07-23T14:24:49;33.40;48.10
20856;DHT22;10588;49.542;8.444;2022-07-23T14:27:15;33.40;48.10
20856;DHT22;10588;49.542;8.444;2022-07-23T14:29:41;33.50;48.00
20856;DHT22;10588;49.542;8.444;2022-07-23T14:32:07;33.40;47.80
20856;DHT22;10588;49.542;8.444;2022-07-23T14:34:33;33.60;47.80
20856;DHT22;10588;49.542;8.444;2022-07-23T14:36:58;33.60;47.60
20856;DHT22;10588;49.542;8.444;2022-07-23T14:39:25;33.60;47.50
20856;DHT22;10588;49.542;8.444;2022-07-23T14:41:51;33.70;47.40
20856;DHT22;10588;49.542;8.444;2022-07-23T14:44:16;33.70;47.40
20856;DHT22;10588;49.542;8.444;2022-07-23T14:46:42;33.80;47.30
20856;DHT22;10588;49.542;8.444;2022-07-23T14:49:08;33.80;47.20
20856;DHT22;10588;49.542;8.444;2022-07-23T14:51:34;33.90;47.20
20856;DHT22;10588;49.542;8.444;2022-07-23T14:53:59;33.90;47.30
20856;DHT22;10588;49.542;8.444;2022-07-23T14:56:25;34.00;47.40
20856;DHT22;10588;49.542;8.444;2022-07-23T14:58:50;34.00;46.90
20856;DHT22;10588;49.542;8.444;2022-07-23T15:01:16;34.00;47.40
20856;DHT22;10588;49.542;8.444;2022-07-23T15:03:42;34.10;46.70
20856;DHT22;10588;49.542;8.444;2022-07-23T15:06:07;34.20;46.20
20856;DHT22;10588;49.542;8.444;2022-07-23T15:08:33;34.30;46.60
20856;DHT22;10588;49.542;8.444;2022-07-23T15:10:58;34.30;46.60
20856;DHT22;10588;49.542;8.444;2022-07-23T15:13:24;34.30;46.60
20856;DHT22;10588;49.542;8.444;2022-07-23T15:15:50;34.40;46.50
20856;DHT22;10588;49.542;8.444;2022-07-23T15:18:15;34.40;46.40
20856;DHT22;10588;49.542;8.444;2022-07-23T15:20:41;34.50;46.30
20856;DHT22;10588;49.542;8.444;2022-07-23T15:23:07;34.50;46.30
20856;DHT22;10588;49.542;8.444;2022-07-23T15:25:33;34.60;46.30
20856;DHT22;10588;49.542;8.444;2022-07-23T15:27:59;34.60;46.10
20856;DHT22;10588;49.542;8.444;2022-07-23T15:30:26;34.60;46.00
20856;DHT22;10588;49.542;8.444;2022-07-23T15:32:51;34.70;46.00
20856;DHT22;10588;49.542;8.444;2022-07-23T15:35:17;34.70;46.00
20856;DHT22;10588;49.542;8.444;2022-07-23T15:37:42;34.80;45.90
20856;DHT22;10588;49.542;8.444;2022-07-23T15:40:09;34.80;45.80
20856;DHT22;10588;49.542;8.444;2022-07-23T15:42:35;34.90;45.70
20856;DHT22;10588;49.542;8.444;2022-07-23T15:45:00;34.90;45.60
20856;DHT22;10588;49.542;8.444;2022-07-23T15:47:26;34.90;45.50
20856;DHT22;10588;49.542;8.444;2022-07-23T15:49:51;35.00;45.40
20856;DHT22;10588;49.542;8.444;2022-07-23T15:52:17;35.00;45.30
20856;DHT22;10588;49.542;8.444;2022-07-23T15:54:42;35.10;45.30
20856;DHT22;10588;49.542;8.444;2022-07-23T15:57:08;35.10;45.30
20856;DHT22;10588;49.542;8.444;2022-07-23T15:59:34;35.10;45.20
20856;DHT22;10588;49.542;8.444;2022-07-23T16:02:00;35.20;45.10
20856;DHT22;10588;49.542;8.444;2022-07-23T16:04:25;35.20;45.00
20856;DHT22;10588;49.542;8.444;2022-07-23T16:06:51;35.20;45.00
20856;DHT22;10588;49.542;8.444;2022-07-23T16:09:17;35.20;44.90
20856;DHT22;10588;49.542;8.444;2022-07-23T16:11:43;35.20;44.80
20856;DHT22;10588;49.542;8.444;2022-07-23T16:14:08;35.20;44.70
20856;DHT22;10588;49.542;8.444;2022-07-23T16:16:34;35.20;44.70
20856;DHT22;10588;49.542;8.444;2022-07-23T16:19:00;35.30;44.80
20856;DHT22;10588;49.542;8.444;2022-07-23T16:21:25;35.30;44.60
20856;DHT22;10588;49.542;8.444;2022-07-23T16:23:51;35.30;44.70
20856;DHT22;10588;49.542;8.444;2022-07-23T16:26:17;35.30;44.50
20856;DHT22;10588;49.542;8.444;2022-07-23T16:28:43;35.30;44.50
20856;DHT22;10588;49.542;8.444;2022-07-23T16:31:10;35.30;44.30
20856;DHT22;10588;49.542;8.444;2022-07-23T16:33:36;35.30;44.30
20856;DHT22;10588;49.542;8.444;2022-07-23T16:36:03;35.30;44.40
20856;DHT22;10588;49.542;8.444;2022-07-23T16:38:29;35.30;44.20
20856;DHT22;10588;49.542;8.444;2022-07-23T16:40:55;35.30;44.10
20856;DHT22;10588;49.542;8.444;2022-07-23T16:43:21;35.30;44.20
20856;DHT22;10588;49.542;8.444;2022-07-23T16:45:47;35.30;44.20
20856;DHT22;10588;49.542;8.444;2022-07-23T16:48:13;35.30;44.20
20856;DHT22;10588;49.542;8.444;2022-07-23T16:50:39;35.30;44.20
20856;DHT22;10588;49.542;8.444;2022-07-23T16:53:05;35.30;44.20
20856;DHT22;10588;49.542;8.444;2022-07-23T16:55:30;35.30;44.20
20856;DHT22;10588;49.542;8.444;2022-07-23T16:57:56;35.40;44.10
20856;DHT22;10588;49.542;8.444;2022-07-23T17:00:22;35.30;44.00
20856;DHT22;10588;49.542;8.444;2022-07-23T17:02:47;35.30;43.80
20856;DHT22;10588;49.542;8.444;2022-07-23T17:05:13;35.30;43.70
20856;DHT22;10588;49.542;8.444;2022-07-23T17:07:39;35.30;43.60
20856;DHT22;10588;49.542;8.444;2022-07-23T17:10:06;35.30;43.60
20856;DHT22;10588;49.542;8.444;2022-07-23T17:12:32;35.30;43.50
20856;DHT22;10588;49.542;8.444;2022-07-23T17:14:58;35.30;43.60
20856;DHT22;10588;49.542;8.444;2022-07-23T17:17:24;35.30;43.70
20856;DHT22;10588;49.542;8.444;2022-07-23T17:19:50;35.30;43.60
20856;DHT22;10588;49.542;8.444;2022-07-23T17:22:15;35.30;43.60
20856;DHT22;10588;49.542;8.444;2022-07-23T17:24:41;35.40;43.60
20856;DHT22;10588;49.542;8.444;2022-07-23T17:27:06;35.30;43.40
20856;DHT22;10588;49.542;8.444;2022-07-23T17:29:33;35.40;43.50
20856;DHT22;10588;49.542;8.444;2022-07-23T17:31:59;35.40;43.30
20856;DHT22;10588;49.542;8.444;2022-07-23T17:34:24;35.40;43.30
20856;DHT22;10588;49.542;8.444;2022-07-23T17:36:50;35.40;43.10
20856;DHT22;10588;49.542;8.444;2022-07-23T17:39:17;35.40;43.00
20856;DHT22;10588;49.542;8.444;2022-07-23T17:41:43;35.40;42.90
20856;DHT22;10588;49.542;8.444;2022-07-23T17:44:13;35.40;43.00
20856;DHT22;10588;49.542;8.444;2022-07-23T17:46:39;35.40;43.00
20856;DHT22;10588;49.542;8.444;2022-07-23T17:49:04;35.30;43.00
20856;DHT22;10588;49.542;8.444;2022-07-23T17:51:37;35.30;43.00
20856;DHT22;10588;49.542;8.444;2022-07-23T17:54:04;35.30;42.80
20856;DHT22;10588;49.542;8.444;2022-07-23T17:56:30;35.40;42.90
20856;DHT22;10588;49.542;8.444;2022-07-23T17:58:56;35.30;43.00
20856;DHT22;10588;49.542;8.444;2022-07-23T18:01:22;35.30;43.00
20856;DHT22;10588;49.542;8.444;2022-07-23T18:03:47;35.30;43.00
20856;DHT22;10588;49.542;8.444;2022-07-23T18:06:16;35.30;42.90
20856;DHT22;10588;49.542;8.444;2022-07-23T18:08:41;35.30;42.90
20856;DHT22;10588;49.542;8.444;2022-07-23T18:11:07;35.30;42.80
20856;DHT22;10588;49.542;8.444;2022-07-23T18:13:33;35.30;42.80
20856;DHT22;10588;49.542;8.444;2022-07-23T18:15:59;35.30;42.60
20856;DHT22;10588;49.542;8.444;2022-07-23T18:18:25;35.30;42.60
20856;DHT22;10588;49.542;8.444;2022-07-23T18:20:52;35.30;42.60
20856;DHT22;10588;49.542;8.444;2022-07-23T18:23:18;35.10;42.40
20856;DHT22;10588;49.542;8.444;2022-07-23T18:25:44;35.20;42.40
20856;DHT22;10588;49.542;8.444;2022-07-23T18:28:12;35.20;42.30
20856;DHT22;10588;49.542;8.444;2022-07-23T18:30:38;35.20;42.30
20856;DHT22;10588;49.542;8.444;2022-07-23T18:33:04;35.20;42.30
20856;DHT22;10588;49.542;8.444;2022-07-23T18:35:30;35.20;42.30
20856;DHT22;10588;49.542;8.444;2022-07-23T18:37:55;35.10;42.20
20856;DHT22;10588;49.542;8.444;2022-07-23T18:40:21;35.10;42.30
20856;DHT22;10588;49.542;8.444;2022-07-23T18:42:51;35.10;42.40
20856;DHT22;10588;49.542;8.444;2022-07-23T18:45:21;35.10;42.30
20856;DHT22;10588;49.542;8.444;2022-07-23T18:47:47;35.10;42.40
20856;DHT22;10588;49.542;8.444;2022-07-23T18:50:12;35.00;42.40
20856;DHT22;10588;49.542;8.444;2022-07-23T18:52:41;35.00;42.40
20856;DHT22;10588;49.542;8.444;2022-07-23T18:55:22;35.00;42.30
20856;DHT22;10588;49.542;8.444;2022-07-23T18:57:59;35.00;42.20
20856;DHT22;10588;49.542;8.444;2022-07-23T19:00:29;34.90;42.30
20856;DHT22;10588;49.542;8.444;2022-07-23T19:02:56;34.90;42.50
20856;DHT22;10588;49.542;8.444;2022-07-23T19:05:26;34.90;42.50
20856;DHT22;10588;49.542;8.444;2022-07-23T19:07:55;34.90;42.40
20856;DHT22;10588;49.542;8.444;2022-07-23T19:10:21;34.90;42.40
20856;DHT22;10588;49.542;8.444;2022-07-23T19:12:47;34.90;42.50
20856;DHT22;10588;49.542;8.444;2022-07-23T19:15:15;34.80;42.50
20856;DHT22;10588;49.542;8.444;2022-07-23T19:17:41;34.80;42.40
20856;DHT22;10588;49.542;8.444;2022-07-23T19:20:08;34.80;42.50
20856;DHT22;10588;49.542;8.444;2022-07-23T19:22:36;34.80;42.50
20856;DHT22;10588;49.542;8.444;2022-07-23T19:25:03;34.80;42.50
20856;DHT22;10588;49.542;8.444;2022-07-23T19:27:28;34.70;42.40
20856;DHT22;10588;49.542;8.444;2022-07-23T19:30:07;34.80;42.50
20856;DHT22;10588;49.542;8.444;2022-07-23T19:32:33;34.70;42.30
20856;DHT22;10588;49.542;8.444;2022-07-23T19:34:58;34.70;42.50
20856;DHT22;10588;49.542;8.444;2022-07-23T19:37:24;34.60;42.40
20856;DHT22;10588;49.542;8.444;2022-07-23T19:39:50;34.60;42.40
20856;DHT22;10588;49.542;8.444;2022-07-23T19:42:16;34.70;42.50
20856;DHT22;10588;49.542;8.444;2022-07-23T19:44:45;34.60;42.50
20856;DHT22;10588;49.542;8.444;2022-07-23T19:47:22;34.60;42.40
20856;DHT22;10588;49.542;8.444;2022-07-23T19:49:50;34.60;42.40
20856;DHT22;10588;49.542;8.444;2022-07-23T19:52:20;34.50;42.50
20856;DHT22;10588;49.542;8.444;2022-07-23T19:54:46;34.50;42.50
20856;DHT22;10588;49.542;8.444;2022-07-23T19:57:12;34.50;42.50
20856;DHT22;10588;49.542;8.444;2022-07-23T19:59:38;34.50;42.60
20856;DHT22;10588;49.542;8.444;2022-07-23T20:02:04;34.40;42.60
20856;DHT22;10588;49.542;8.444;2022-07-23T20:04:33;34.40;42.50
20856;DHT22;10588;49.542;8.444;2022-07-23T20:07:01;34.40;42.50
20856;DHT22;10588;49.542;8.444;2022-07-23T20:09:27;34.40;42.50
20856;DHT22;10588;49.542;8.444;2022-07-23T20:11:52;34.40;42.60
20856;DHT22;10588;49.542;8.444;2022-07-23T20:14:18;34.30;42.60
20856;DHT22;10588;49.542;8.444;2022-07-23T20:16:45;34.30;42.70
20856;DHT22;10588;49.542;8.444;2022-07-23T20:19:10;34.30;42.70
20856;DHT22;10588;49.542;8.444;2022-07-23T20:21:36;34.30;42.80
20856;DHT22;10588;49.542;8.444;2022-07-23T20:24:09;34.30;42.90
20856;DHT22;10588;49.542;8.444;2022-07-23T20:26:36;34.20;42.80
20856;DHT22;10588;49.542;8.444;2022-07-23T20:29:02;34.20;42.90
20856;DHT22;10588;49.542;8.444;2022-07-23T20:31:27;34.20;43.70
20856;DHT22;10588;49.542;8.444;2022-07-23T20:33:53;34.20;43.10
20856;DHT22;10588;49.542;8.444;2022-07-23T20:36:18;34.10;43.00
20856;DHT22;10588;49.542;8.444;2022-07-23T20:38:44;34.10;43.00
20856;DHT22;10588;49.542;8.444;2022-07-23T20:41:10;34.10;43.10
20856;DHT22;10588;49.542;8.444;2022-07-23T20:43:35;34.10;43.20
20856;DHT22;10588;49.542;8.444;2022-07-23T20:46:01;34.10;43.10
20856;DHT22;10588;49.542;8.444;2022-07-23T20:48:27;34.10;43.20
20856;DHT22;10588;49.542;8.444;2022-07-23T20:50:53;34.00;43.00
20856;DHT22;10588;49.542;8.444;2022-07-23T20:53:18;34.00;43.00
20856;DHT22;10588;49.542;8.444;2022-07-23T20:55:44;33.90;43.10
20856;DHT22;10588;49.542;8.444;2022-07-23T20:58:10;33.90;43.00
20856;DHT22;10588;49.542;8.444;2022-07-23T21:00:36;33.90;42.90
20856;DHT22;10588;49.542;8.444;2022-07-23T21:03:02;33.90;43.00
20856;DHT22;10588;49.542;8.444;2022-07-23T21:05:27;33.80;42.70
20856;DHT22;10588;49.542;8.444;2022-07-23T21:07:53;33.90;42.90
20856;DHT22;10588;49.542;8.444;2022-07-23T21:10:24;33.80;42.70
20856;DHT22;10588;49.542;8.444;2022-07-23T21:12:50;33.80;42.60
20856;DHT22;10588;49.542;8.444;2022-07-23T21:15:16;33.70;42.70
20856;DHT22;10588;49.542;8.444;2022-07-23T21:17:42;33.80;42.60
20856;DHT22;10588;49.542;8.444;2022-07-23T21:20:11;33.70;42.60
20856;DHT22;10588;49.542;8.444;2022-07-23T21:22:37;33.70;42.50
20856;DHT22;10588;49.542;8.444;2022-07-23T21:25:03;33.70;42.60
20856;DHT22;10588;49.542;8.444;2022-07-23T21:27:36;33.60;42.50
20856;DHT22;10588;49.542;8.444;2022-07-23T21:30:12;33.70;42.40
20856;DHT22;10588;49.542;8.444;2022-07-23T21:32:47;33.60;42.30
20856;DHT22;10588;49.542;8.444;2022-07-23T21:35:12;33.60;42.30
20856;DHT22;10588;49.542;8.444;2022-07-23T21:37:47;33.60;42.40
20856;DHT22;10588;49.542;8.444;2022-07-23T21:40:12;33.60;42.30
20856;DHT22;10588;49.542;8.444;2022-07-23T21:42:38;33.50;42.40
20856;DHT22;10588;49.542;8.444;2022-07-23T21:45:04;33.50;42.40
20856;DHT22;10588;49.542;8.444;2022-07-23T21:47:30;33.50;42.40
20856;DHT22;10588;49.542;8.444;2022-07-23T21:49:55;33.50;42.40
20856;DHT22;10588;49.542;8.444;2022-07-23T21:52:22;33.40;42.30
20856;DHT22;10588;49.542;8.444;2022-07-23T21:54:52;33.40;42.30
20856;DHT22;10588;49.542;8.444;2022-07-23T21:57:18;33.40;42.30
20856;DHT22;10588;49.542;8.444;2022-07-23T21:59:43;33.40;42.40
20856;DHT22;10588;49.542;8.444;2022-07-23T22:02:17;33.40;42.40
20856;DHT22;10588;49.542;8.444;2022-07-23T22:04:43;33.30;42.30
20856;DHT22;10588;49.542;8.444;2022-07-23T22:07:09;33.30;42.30
20856;DHT22;10588;49.542;8.444;2022-07-23T22:09:35;33.30;42.40
20856;DHT22;10588;49.542;8.444;2022-07-23T22:12:01;33.30;42.40
20856;DHT22;10588;49.542;8.444;2022-07-23T22:14:27;33.30;42.40
20856;DHT22;10588;49.542;8.444;2022-07-23T22:16:52;33.20;42.40
20856;DHT22;10588;49.542;8.444;2022-07-23T22:19:18;33.20;42.40
20856;DHT22;10588;49.542;8.444;2022-07-23T22:21:44;33.20;42.40
20856;DHT22;10588;49.542;8.444;2022-07-23T22:24:09;33.10;42.40
20856;DHT22;10588;49.542;8.444;2022-07-23T22:26:35;33.10;42.50
20856;DHT22;10588;49.542;8.444;2022-07-23T22:29:01;33.10;42.50
20856;DHT22;10588;49.542;8.444;2022-07-23T22:31:27;33.00;42.40
20856;DHT22;10588;49.542;8.444;2022-07-23T22:33:53;33.00;42.40
20856;DHT22;10588;49.542;8.444;2022-07-23T22:36:18;33.00;42.40
20856;DHT22;10588;49.542;8.444;2022-07-23T22:38:44;33.00;42.40
20856;DHT22;10588;49.542;8.444;2022-07-23T22:41:09;33.00;42.40
20856;DHT22;10588;49.542;8.444;2022-07-23T22:43:35;32.90;42.40
20856;DHT22;10588;49.542;8.444;2022-07-23T22:46:01;32.90;42.40
20856;DHT22;10588;49.542;8.444;2022-07-23T22:48:26;32.90;42.50
20856;DHT22;10588;49.542;8.444;2022-07-23T22:50:52;32.80;42.40
20856;DHT22;10588;49.542;8.444;2022-07-23T22:53:18;32.80;42.40
20856;DHT22;10588;49.542;8.444;2022-07-23T22:55:43;32.80;42.50
20856;DHT22;10588;49.542;8.444;2022-07-23T22:58:09;32.70;43.10
20856;DHT22;10588;49.542;8.444;2022-07-23T23:00:35;32.80;42.50
20856;DHT22;10588;49.542;8.444;2022-07-23T23:03:00;32.70;42.40
20856;DHT22;10588;49.542;8.444;2022-07-23T23:05:26;32.70;42.50
20856;DHT22;10588;49.542;8.444;2022-07-23T23:07:52;32.70;42.40
20856;DHT22;10588;49.542;8.444;2022-07-23T23:10:17;32.60;42.40
20856;DHT22;10588;49.542;8.444;2022-07-23T23:12:43;32.60;42.40
20856;DHT22;10588;49.542;8.444;2022-07-23T23:15:09;32.50;42.40
20856;DHT22;10588;49.542;8.444;2022-07-23T23:17:35;32.50;42.40
20856;DHT22;10588;49.542;8.444;2022-07-23T23:20:01;32.50;42.50
20856;DHT22;10588;49.542;8.444;2022-07-23T23:22:26;32.50;42.50
20856;DHT22;10588;49.542;8.444;2022-07-23T23:24:52;32.40;42.40
20856;DHT22;10588;49.542;8.444;2022-07-23T23:27:17;32.50;42.50
20856;DHT22;10588;49.542;8.444;2022-07-23T23:29:43;32.40;42.50
20856;DHT22;10588;49.542;8.444;2022-07-23T23:32:09;32.30;42.50
20856;DHT22;10588;49.542;8.444;2022-07-23T23:34:35;32.30;42.50
20856;DHT22;10588;49.542;8.444;2022-07-23T23:37:00;32.30;42.60
20856;DHT22;10588;49.542;8.444;2022-07-23T23:39:26;32.30;42.60
20856;DHT22;10588;49.542;8.444;2022-07-23T23:41:53;32.30;42.60
20856;DHT22;10588;49.542;8.444;2022-07-23T23:44:18;32.30;42.60
20856;DHT22;10588;49.542;8.444;2022-07-23T23:46:47;32.20;42.60
20856;DHT22;10588;49.542;8.444;2022-07-23T23:49:13;32.30;42.70
20856;DHT22;10588;49.542;8.444;2022-07-23T23:51:42;32.10;42.60
20856;DHT22;10588;49.542;8.444;2022-07-23T23:54:09;32.10;42.60
20856;DHT22;10588;49.542;8.444;2022-07-23T23:56:35;32.10;42.60
20856;DHT22;10588;49.542;8.444;2022-07-23T23:59:00;32.10;42.70
